sensor_id;sensor_type;location;lat;lon;timestamp;temperature;humidity
56044;DHT22;41912;51.022;3.664;2023-02-18T00:00:24;12.40;99.90
56044;DHT22;41912;51.022;3.664;2023-02-18T00:02:50;12.40;99.90
56044;DHT22;41912;51.022;3.664;2023-02-18T00:05:16;12.40;99.90
56044;DHT22;41912;51.022;3.664;2023-02-18T00:07:41;12.40;99.90
56044;DHT22;41912;51.022;3.664;2023-02-18T00:10:11;12.40;99.90
56044;DHT22;41912;51.022;3.664;2023-02-18T00:12:38;12.40;99.90
56044;DHT22;41912;51.022;3.664;2023-02-18T00:15:04;12.40;99.90
56044;DHT22;41912;51.022;3.664;2023-02-18T00:17:30;12.40;99.90
56044;DHT22;41912;51.022;3.664;2023-02-18T00:19:55;12.40;99.90
56044;DHT22;41912;51.022;3.664;2023-02-18T00:22:22;12.40;99.90
56044;DHT22;41912;51.022;3.664;2023-02-18T00:24:48;12.40;99.90
56044;DHT22;41912;51.022;3.664;2023-02-18T00:27:13;12.50;99.90
56044;DHT22;41912;51.022;3.664;2023-02-18T00:29:39;12.40;99.90
56044;DHT22;41912;51.022;3.664;2023-02-18T00:32:05;12.40;99.90
56044;DHT22;41912;51.022;3.664;2023-02-18T00:34:30;12.40;99.90
56044;DHT22;41912;51.022;3.664;2023-02-18T00:36:56;12.40;99.90
56044;DHT22;41912;51.022;3.664;2023-02-18T00:39:21;12.40;99.90
56044;DHT22;41912;51.022;3.664;2023-02-18T00:41:47;12.40;99.90
56044;DHT22;41912;51.022;3.664;2023-02-18T00:44:13;12.40;99.90
56044;DHT22;41912;51.022;3.664;2023-02-18T00:46:39;12.40;99.90
56044;DHT22;41912;51.022;3.664;2023-02-18T00:49:05;12.40;99.90
56044;DHT22;41912;51.022;3.664;2023-02-18T00:51:32;12.40;99.90
56044;DHT22;41912;51.022;3.664;2023-02-18T00:53:57;12.50;99.90
56044;DHT22;41912;51.022;3.664;2023-02-18T00:56:23;12.40;99.90
56044;DHT22;41912;51.022;3.664;2023-02-18T00:58:49;12.50;99.90
56044;DHT22;41912;51.022;3.664;2023-02-18T01:01:15;12.40;99.90
56044;DHT22;41912;51.022;3.664;2023-02-18T01:03:42;12.50;99.90
56044;DHT22;41912;51.022;3.664;2023-02-18T01:06:08;12.40;99.90
56044;DHT22;41912;51.022;3.664;2023-02-18T01:08:34;12.40;99.90
56044;DHT22;41912;51.022;3.664;2023-02-18T01:11:00;12.40;99.90
56044;DHT22;41912;51.022;3.664;2023-02-18T01:13:27;12.40;99.90
56044;DHT22;41912;51.022;3.664;2023-02-18T01:15:53;12.40;99.90
56044;DHT22;41912;51.022;3.664;2023-02-18T01:18:19;12.40;99.90
56044;DHT22;41912;51.022;3.664;2023-02-18T01:20:46;12.40;99.90
56044;DHT22;41912;51.022;3.664;2023-02-18T01:23:12;12.40;99.90
56044;DHT22;41912;51.022;3.664;2023-02-18T01:25:38;12.40;99.90
56044;DHT22;41912;51.022;3.664;2023-02-18T01:28:05;12.30;99.90
56044;DHT22;41912;51.022;3.664;2023-02-18T01:30:31;12.30;99.90
56044;DHT22;41912;51.022;3.664;2023-02-18T01:32:57;12.20;99.90
56044;DHT22;41912;51.022;3.664;2023-02-18T01:35:23;12.30;99.90
56044;DHT22;41912;51.022;3.664;2023-02-18T01:37:49;12.40;99.90
56044;DHT22;41912;51.022;3.664;2023-02-18T01:40:18;12.30;99.90
56044;DHT22;41912;51.022;3.664;2023-02-18T01:42:44;12.30;99.90
56044;DHT22;41912;51.022;3.664;2023-02-18T01:48:00;12.30;99.90
56044;DHT22;41912;51.022;3.664;2023-02-18T01:50:27;12.30;99.90
56044;DHT22;41912;51.022;3.664;2023-02-18T01:52:52;12.30;99.90
56044;DHT22;41912;51.022;3.664;2023-02-18T01:55:18;12.30;99.90
56044;DHT22;41912;51.022;3.664;2023-02-18T01:57:45;12.30;99.90
56044;DHT22;41912;51.022;3.664;2023-02-18T02:00:13;12.20;99.90
56044;DHT22;41912;51.022;3.664;2023-02-18T02:02:44;12.30;99.90
56044;DHT22;41912;51.022;3.664;2023-02-18T02:05:11;12.30;99.90
56044;DHT22;41912;51.022;3.664;2023-02-18T02:07:38;12.20;99.90
56044;DHT22;41912;51.022;3.664;2023-02-18T02:10:05;12.20;99.90
56044;DHT22;41912;51.022;3.664;2023-02-18T02:13:06;12.20;99.90
56044;DHT22;41912;51.022;3.664;2023-02-18T02:38:18;12.30;99.90
56044;DHT22;41912;51.022;3.664;2023-02-18T02:44:06;12.20;99.90
56044;DHT22;41912;51.022;3.664;2023-02-18T02:46:40;12.20;99.90
56044;DHT22;41912;51.022;3.664;2023-02-18T02:52:05;12.20;99.90
56044;DHT22;41912;51.022;3.664;2023-02-18T02:54:32;12.10;99.90
56044;DHT22;41912;51.022;3.664;2023-02-18T02:57:40;12.10;99.90
56044;DHT22;41912;51.022;3.664;2023-02-18T02:59:58;12.10;99.90
56044;DHT22;41912;51.022;3.664;2023-02-18T03:02:48;12.10;99.90
56044;DHT22;41912;51.022;3.664;2023-02-18T03:08:24;12.10;99.90
56044;DHT22;41912;51.022;3.664;2023-02-18T03:11:14;12.10;99.90
56044;DHT22;41912;51.022;3.664;2023-02-18T03:19:32;12.10;99.90
56044;DHT22;41912;51.022;3.664;2023-02-18T03:22:00;12.20;99.90
56044;DHT22;41912;51.022;3.664;2023-02-18T03:27:10;12.00;99.90
56044;DHT22;41912;51.022;3.664;2023-02-18T03:29:37;12.00;99.90
56044;DHT22;41912;51.022;3.664;2023-02-18T03:32:06;12.00;99.90
56044;DHT22;41912;51.022;3.664;2023-02-18T03:34:38;12.00;99.90
56044;DHT22;41912;51.022;3.664;2023-02-18T03:37:06;12.00;99.90
56044;DHT22;41912;51.022;3.664;2023-02-18T03:39:34;12.00;99.90
56044;DHT22;41912;51.022;3.664;2023-02-18T03:42:00;12.00;99.90
56044;DHT22;41912;51.022;3.664;2023-02-18T03:44:26;12.00;99.90
56044;DHT22;41912;51.022;3.664;2023-02-18T03:46:52;12.00;99.90
56044;DHT22;41912;51.022;3.664;2023-02-18T03:49:18;11.90;99.90
56044;DHT22;41912;51.022;3.664;2023-02-18T03:51:44;11.90;99.90
56044;DHT22;41912;51.022;3.664;2023-02-18T03:54:09;11.90;99.90
56044;DHT22;41912;51.022;3.664;2023-02-18T03:56:36;11.90;99.90
56044;DHT22;41912;51.022;3.664;2023-02-18T03:59:02;11.90;99.90
56044;DHT22;41912;51.022;3.664;2023-02-18T04:01:28;11.90;99.90
56044;DHT22;41912;51.022;3.664;2023-02-18T04:03:53;11.90;99.90
56044;DHT22;41912;51.022;3.664;2023-02-18T04:06:20;12.00;99.90
56044;DHT22;41912;51.022;3.664;2023-02-18T04:08:46;12.00;99.90
56044;DHT22;41912;51.022;3.664;2023-02-18T04:11:12;11.90;99.90
56044;DHT22;41912;51.022;3.664;2023-02-18T04:13:38;11.90;99.90
56044;DHT22;41912;51.022;3.664;2023-02-18T04:16:04;11.90;99.90
56044;DHT22;41912;51.022;3.664;2023-02-18T04:18:30;11.80;99.90
56044;DHT22;41912;51.022;3.664;2023-02-18T04:20:55;11.90;99.90
56044;DHT22;41912;51.022;3.664;2023-02-18T04:23:21;11.80;99.90
56044;DHT22;41912;51.022;3.664;2023-02-18T04:25:47;11.80;99.90
56044;DHT22;41912;51.022;3.664;2023-02-18T04:28:14;11.90;99.90
56044;DHT22;41912;51.022;3.664;2023-02-18T04:30:42;11.90;99.90
56044;DHT22;41912;51.022;3.664;2023-02-18T04:33:08;11.80;99.90
56044;DHT22;41912;51.022;3.664;2023-02-18T04:35:34;11.80;99.90
56044;DHT22;41912;51.022;3.664;2023-02-18T04:38:02;11.80;99.90
56044;DHT22;41912;51.022;3.664;2023-02-18T04:40:27;11.80;99.90
56044;DHT22;41912;51.022;3.664;2023-02-18T04:42:58;11.80;99.90
56044;DHT22;41912;51.022;3.664;2023-02-18T04:45:25;11.80;99.90
56044;DHT22;41912;51.022;3.664;2023-02-18T04:47:51;11.80;99.90
56044;DHT22;41912;51.022;3.664;2023-02-18T04:50:17;11.70;99.90
56044;DHT22;41912;51.022;3.664;2023-02-18T04:52:43;11.70;99.90
56044;DHT22;41912;51.022;3.664;2023-02-18T04:55:09;11.70;99.90
56044;DHT22;41912;51.022;3.664;2023-02-18T04:57:35;11.80;99.90
56044;DHT22;41912;51.022;3.664;2023-02-18T05:00:00;11.80;99.90
56044;DHT22;41912;51.022;3.664;2023-02-18T05:02:27;11.80;99.90
56044;DHT22;41912;51.022;3.664;2023-02-18T05:04:52;11.80;99.90
56044;DHT22;41912;51.022;3.664;2023-02-18T05:07:18;11.80;99.90
56044;DHT22;41912;51.022;3.664;2023-02-18T05:09:43;11.80;99.90
56044;DHT22;41912;51.022;3.664;2023-02-18T05:12:09;11.80;99.90
56044;DHT22;41912;51.022;3.664;2023-02-18T05:14:34;11.80;99.90
56044;DHT22;41912;51.022;3.664;2023-02-18T05:17:00;11.80;99.90
56044;DHT22;41912;51.022;3.664;2023-02-18T05:19:26;11.80;99.90
56044;DHT22;41912;51.022;3.664;2023-02-18T05:21:51;11.80;99.90
56044;DHT22;41912;51.022;3.664;2023-02-18T05:24:17;11.70;99.90
56044;DHT22;41912;51.022;3.664;2023-02-18T05:26:42;11.70;99.90
56044;DHT22;41912;51.022;3.664;2023-02-18T05:29:08;11.70;99.90
56044;DHT22;41912;51.022;3.664;2023-02-18T05:31:34;11.70;99.90
56044;DHT22;41912;51.022;3.664;2023-02-18T05:33:59;11.70;99.90
56044;DHT22;41912;51.022;3.664;2023-02-18T05:36:25;11.70;99.90
56044;DHT22;41912;51.022;3.664;2023-02-18T05:38:51;11.70;99.90
56044;DHT22;41912;51.022;3.664;2023-02-18T05:41:16;11.70;99.90
56044;DHT22;41912;51.022;3.664;2023-02-18T05:43:42;11.70;99.90
56044;DHT22;41912;51.022;3.664;2023-02-18T05:46:26;11.80;99.90
56044;DHT22;41912;51.022;3.664;2023-02-18T05:48:51;11.70;99.90
56044;DHT22;41912;51.022;3.664;2023-02-18T05:51:17;11.70;99.90
56044;DHT22;41912;51.022;3.664;2023-02-18T05:53:43;11.70;99.90
56044;DHT22;41912;51.022;3.664;2023-02-18T05:56:08;11.70;99.90
56044;DHT22;41912;51.022;3.664;2023-02-18T05:58:34;11.70;99.90
56044;DHT22;41912;51.022;3.664;2023-02-18T06:01:00;11.70;99.90
56044;DHT22;41912;51.022;3.664;2023-02-18T06:03:25;11.70;99.90
56044;DHT22;41912;51.022;3.664;2023-02-18T06:05:52;11.70;99.90
56044;DHT22;41912;51.022;3.664;2023-02-18T06:08:18;11.70;99.90
56044;DHT22;41912;51.022;3.664;2023-02-18T06:10:46;11.70;99.90
56044;DHT22;41912;51.022;3.664;2023-02-18T06:13:12;11.70;99.90
56044;DHT22;41912;51.022;3.664;2023-02-18T06:15:38;11.70;99.90
56044;DHT22;41912;51.022;3.664;2023-02-18T06:18:05;11.70;99.90
56044;DHT22;41912;51.022;3.664;2023-02-18T06:20:31;11.70;99.90
56044;DHT22;41912;51.022;3.664;2023-02-18T06:22:57;11.70;99.90
56044;DHT22;41912;51.022;3.664;2023-02-18T06:25:22;11.70;99.90
56044;DHT22;41912;51.022;3.664;2023-02-18T06:27:48;11.70;99.90
56044;DHT22;41912;51.022;3.664;2023-02-18T06:30:14;11.70;99.90
56044;DHT22;41912;51.022;3.664;2023-02-18T06:32:39;11.70;99.90
56044;DHT22;41912;51.022;3.664;2023-02-18T06:35:05;11.70;99.90
56044;DHT22;41912;51.022;3.664;2023-02-18T06:37:31;11.70;99.90
56044;DHT22;41912;51.022;3.664;2023-02-18T06:39:57;11.70;99.90
56044;DHT22;41912;51.022;3.664;2023-02-18T06:42:22;11.70;99.90
56044;DHT22;41912;51.022;3.664;2023-02-18T06:44:48;11.70;99.90
56044;DHT22;41912;51.022;3.664;2023-02-18T06:47:13;11.70;99.90
56044;DHT22;41912;51.022;3.664;2023-02-18T06:49:39;11.70;99.90
56044;DHT22;41912;51.022;3.664;2023-02-18T06:52:05;11.70;99.90
56044;DHT22;41912;51.022;3.664;2023-02-18T06:54:31;11.70;99.90
56044;DHT22;41912;51.022;3.664;2023-02-18T06:56:57;11.70;99.90
56044;DHT22;41912;51.022;3.664;2023-02-18T06:59:22;11.60;99.90
56044;DHT22;41912;51.022;3.664;2023-02-18T07:01:48;11.70;99.90
56044;DHT22;41912;51.022;3.664;2023-02-18T07:04:14;11.70;99.90
56044;DHT22;41912;51.022;3.664;2023-02-18T07:06:39;11.70;99.90
56044;DHT22;41912;51.022;3.664;2023-02-18T07:09:05;11.70;99.90
56044;DHT22;41912;51.022;3.664;2023-02-18T07:11:31;11.70;99.90
56044;DHT22;41912;51.022;3.664;2023-02-18T07:13:56;11.70;99.90
56044;DHT22;41912;51.022;3.664;2023-02-18T07:16:22;11.70;99.90
56044;DHT22;41912;51.022;3.664;2023-02-18T07:18:47;11.70;99.90
56044;DHT22;41912;51.022;3.664;2023-02-18T07:21:13;11.70;99.90
56044;DHT22;41912;51.022;3.664;2023-02-18T07:23:39;11.70;99.90
56044;DHT22;41912;51.022;3.664;2023-02-18T07:26:10;11.70;99.90
56044;DHT22;41912;51.022;3.664;2023-02-18T07:28:37;11.60;99.90
56044;DHT22;41912;51.022;3.664;2023-02-18T07:31:03;11.70;99.90
56044;DHT22;41912;51.022;3.664;2023-02-18T07:33:29;11.70;99.90
56044;DHT22;41912;51.022;3.664;2023-02-18T07:36:00;11.70;99.90
56044;DHT22;41912;51.022;3.664;2023-02-18T07:38:27;11.70;99.90
56044;DHT22;41912;51.022;3.664;2023-02-18T07:40:55;11.70;99.90
56044;DHT22;41912;51.022;3.664;2023-02-18T07:43:21;11.70;99.90
56044;DHT22;41912;51.022;3.664;2023-02-18T07:45:47;11.70;99.90
56044;DHT22;41912;51.022;3.664;2023-02-18T07:48:13;11.60;99.90
56044;DHT22;41912;51.022;3.664;2023-02-18T07:50:40;11.70;99.90
56044;DHT22;41912;51.022;3.664;2023-02-18T07:53:06;11.70;99.90
56044;DHT22;41912;51.022;3.664;2023-02-18T07:55:32;11.70;99.90
56044;DHT22;41912;51.022;3.664;2023-02-18T07:58:23;11.70;99.90
56044;DHT22;41912;51.022;3.664;2023-02-18T08:00:50;11.70;99.90
56044;DHT22;41912;51.022;3.664;2023-02-18T08:03:17;11.70;99.90
56044;DHT22;41912;51.022;3.664;2023-02-18T08:05:43;11.70;99.90
56044;DHT22;41912;51.022;3.664;2023-02-18T08:08:18;11.70;99.90
56044;DHT22;41912;51.022;3.664;2023-02-18T08:10:45;11.70;99.90
56044;DHT22;41912;51.022;3.664;2023-02-18T08:13:11;11.70;99.90
56044;DHT22;41912;51.022;3.664;2023-02-18T08:15:37;11.70;99.90
56044;DHT22;41912;51.022;3.664;2023-02-18T08:18:04;11.70;99.90
56044;DHT22;41912;51.022;3.664;2023-02-18T08:20:30;11.70;99.90
56044;DHT22;41912;51.022;3.664;2023-02-18T08:22:56;11.70;99.90
56044;DHT22;41912;51.022;3.664;2023-02-18T08:25:22;11.80;99.90
56044;DHT22;41912;51.022;3.664;2023-02-18T08:27:47;11.80;99.90
56044;DHT22;41912;51.022;3.664;2023-02-18T08:30:13;11.80;99.90
56044;DHT22;41912;51.022;3.664;2023-02-18T08:32:39;11.80;99.90
56044;DHT22;41912;51.022;3.664;2023-02-18T08:35:05;11.80;99.90
56044;DHT22;41912;51.022;3.664;2023-02-18T08:37:32;11.80;99.90
56044;DHT22;41912;51.022;3.664;2023-02-18T08:39:57;11.90;99.90
56044;DHT22;41912;51.022;3.664;2023-02-18T08:42:23;11.80;99.90
56044;DHT22;41912;51.022;3.664;2023-02-18T08:44:48;11.90;99.90
56044;DHT22;41912;51.022;3.664;2023-02-18T08:47:14;11.90;99.90
56044;DHT22;41912;51.022;3.664;2023-02-18T08:49:40;11.80;99.90
56044;DHT22;41912;51.022;3.664;2023-02-18T08:52:05;11.80;99.90
56044;DHT22;41912;51.022;3.664;2023-02-18T08:54:31;11.90;99.90
56044;DHT22;41912;51.022;3.664;2023-02-18T08:56:57;11.90;99.90
56044;DHT22;41912;51.022;3.664;2023-02-18T08:59:23;11.90;99.90
56044;DHT22;41912;51.022;3.664;2023-02-18T09:01:49;11.90;99.90
56044;DHT22;41912;51.022;3.664;2023-02-18T09:04:15;12.00;99.90
56044;DHT22;41912;51.022;3.664;2023-02-18T09:06:40;12.00;99.90
56044;DHT22;41912;51.022;3.664;2023-02-18T09:09:06;12.00;99.90
56044;DHT22;41912;51.022;3.664;2023-02-18T09:11:32;12.00;99.90
56044;DHT22;41912;51.022;3.664;2023-02-18T09:13:58;12.00;99.90
56044;DHT22;41912;51.022;3.664;2023-02-18T09:16:23;12.00;99.90
56044;DHT22;41912;51.022;3.664;2023-02-18T09:18:49;12.10;99.90
56044;DHT22;41912;51.022;3.664;2023-02-18T09:21:16;12.00;99.90
56044;DHT22;41912;51.022;3.664;2023-02-18T09:23:43;12.10;99.90
56044;DHT22;41912;51.022;3.664;2023-02-18T09:26:11;12.10;99.90
56044;DHT22;41912;51.022;3.664;2023-02-18T09:28:38;12.20;99.90
56044;DHT22;41912;51.022;3.664;2023-02-18T09:31:10;12.20;99.90
56044;DHT22;41912;51.022;3.664;2023-02-18T09:33:39;12.20;99.90
56044;DHT22;41912;51.022;3.664;2023-02-18T09:36:05;12.20;99.90
56044;DHT22;41912;51.022;3.664;2023-02-18T09:38:31;12.20;99.90
56044;DHT22;41912;51.022;3.664;2023-02-18T09:40:59;12.20;99.90
56044;DHT22;41912;51.022;3.664;2023-02-18T09:43:35;12.20;99.90
56044;DHT22;41912;51.022;3.664;2023-02-18T09:46:04;12.30;99.90
56044;DHT22;41912;51.022;3.664;2023-02-18T09:48:35;12.30;99.90
56044;DHT22;41912;51.022;3.664;2023-02-18T09:51:01;12.30;99.90
56044;DHT22;41912;51.022;3.664;2023-02-18T09:53:27;12.30;99.90
56044;DHT22;41912;51.022;3.664;2023-02-18T09:55:55;12.30;99.90
56044;DHT22;41912;51.022;3.664;2023-02-18T09:58:29;12.30;99.90
56044;DHT22;41912;51.022;3.664;2023-02-18T10:01:02;12.30;99.90
56044;DHT22;41912;51.022;3.664;2023-02-18T10:03:28;12.30;99.90
56044;DHT22;41912;51.022;3.664;2023-02-18T10:06:03;12.40;99.90
56044;DHT22;41912;51.022;3.664;2023-02-18T10:08:45;12.40;99.90
56044;DHT22;41912;51.022;3.664;2023-02-18T10:11:17;12.30;99.90
56044;DHT22;41912;51.022;3.664;2023-02-18T10:13:46;12.40;99.90
56044;DHT22;41912;51.022;3.664;2023-02-18T10:16:16;12.40;99.90
56044;DHT22;41912;51.022;3.664;2023-02-18T10:18:45;12.40;99.90
56044;DHT22;41912;51.022;3.664;2023-02-18T10:21:34;12.50;99.90
56044;DHT22;41912;51.022;3.664;2023-02-18T10:24:09;12.50;99.90
56044;DHT22;41912;51.022;3.664;2023-02-18T10:26:38;12.50;99.90
56044;DHT22;41912;51.022;3.664;2023-02-18T10:29:14;12.50;99.90
56044;DHT22;41912;51.022;3.664;2023-02-18T10:31:44;12.50;99.90
56044;DHT22;41912;51.022;3.664;2023-02-18T10:34:20;12.50;99.90
56044;DHT22;41912;51.022;3.664;2023-02-18T10:36:57;12.50;99.90
56044;DHT22;41912;51.022;3.664;2023-02-18T10:50:44;12.60;99.90
56044;DHT22;41912;51.022;3.664;2023-02-18T10:55:43;12.60;99.90
56044;DHT22;41912;51.022;3.664;2023-02-18T11:01:06;12.60;99.90
56044;DHT22;41912;51.022;3.664;2023-02-18T11:06:21;12.60;99.90
56044;DHT22;41912;51.022;3.664;2023-02-18T11:08:49;12.60;99.90
56044;DHT22;41912;51.022;3.664;2023-02-18T11:11:31;12.60;99.90
56044;DHT22;41912;51.022;3.664;2023-02-18T11:14:00;12.70;99.90
56044;DHT22;41912;51.022;3.664;2023-02-18T11:16:52;12.60;99.90
56044;DHT22;41912;51.022;3.664;2023-02-18T11:24:54;12.70;99.90
56044;DHT22;41912;51.022;3.664;2023-02-18T11:29:55;12.80;99.90
56044;DHT22;41912;51.022;3.664;2023-02-18T11:32:26;12.80;99.90
56044;DHT22;41912;51.022;3.664;2023-02-18T11:34:52;12.80;99.90
56044;DHT22;41912;51.022;3.664;2023-02-18T11:37:20;12.80;99.90
56044;DHT22;41912;51.022;3.664;2023-02-18T11:39:49;12.80;99.90
56044;DHT22;41912;51.022;3.664;2023-02-18T11:42:19;12.80;99.90
56044;DHT22;41912;51.022;3.664;2023-02-18T11:45:25;12.90;99.90
56044;DHT22;41912;51.022;3.664;2023-02-18T11:47:59;12.90;99.90
56044;DHT22;41912;51.022;3.664;2023-02-18T11:50:25;12.90;99.90
56044;DHT22;41912;51.022;3.664;2023-02-18T11:52:51;12.90;99.90
56044;DHT22;41912;51.022;3.664;2023-02-18T11:55:23;12.90;99.90
56044;DHT22;41912;51.022;3.664;2023-02-18T11:58:05;13.00;99.90
56044;DHT22;41912;51.022;3.664;2023-02-18T12:00:47;12.90;99.90
56044;DHT22;41912;51.022;3.664;2023-02-18T12:06:10;13.00;99.90
56044;DHT22;41912;51.022;3.664;2023-02-18T12:09:18;13.00;99.90
56044;DHT22;41912;51.022;3.664;2023-02-18T12:11:51;13.00;99.90
56044;DHT22;41912;51.022;3.664;2023-02-18T12:14:20;13.00;99.90
56044;DHT22;41912;51.022;3.664;2023-02-18T12:19:52;13.00;99.90
56044;DHT22;41912;51.022;3.664;2023-02-18T12:29:38;13.00;99.90
56044;DHT22;41912;51.022;3.664;2023-02-18T12:31:48;13.00;99.90
56044;DHT22;41912;51.022;3.664;2023-02-18T12:40:27;12.90;99.90
56044;DHT22;41912;51.022;3.664;2023-02-18T12:43:37;13.00;99.90
56044;DHT22;41912;51.022;3.664;2023-02-18T12:48:37;12.90;99.90
56044;DHT22;41912;51.022;3.664;2023-02-18T13:11:12;13.10;99.90
56044;DHT22;41912;51.022;3.664;2023-02-18T13:16:37;13.10;99.90
56044;DHT22;41912;51.022;3.664;2023-02-18T13:19:32;13.10;99.90
56044;DHT22;41912;51.022;3.664;2023-02-18T13:22:05;13.10;99.90
56044;DHT22;41912;51.022;3.664;2023-02-18T13:24:35;13.20;99.90
56044;DHT22;41912;51.022;3.664;2023-02-18T13:27:24;13.20;99.90
56044;DHT22;41912;51.022;3.664;2023-02-18T13:33:08;13.20;99.90
56044;DHT22;41912;51.022;3.664;2023-02-18T13:35:57;13.20;99.90
56044;DHT22;41912;51.022;3.664;2023-02-18T13:40:57;13.20;99.90
56044;DHT22;41912;51.022;3.664;2023-02-18T13:51:09;13.20;99.90
56044;DHT22;41912;51.022;3.664;2023-02-18T13:53:37;13.20;99.90
56044;DHT22;41912;51.022;3.664;2023-02-18T13:56:20;13.20;99.90
56044;DHT22;41912;51.022;3.664;2023-02-18T13:59:05;13.20;99.90
56044;DHT22;41912;51.022;3.664;2023-02-18T14:01:50;13.20;99.90
56044;DHT22;41912;51.022;3.664;2023-02-18T14:04:52;13.20;99.90
56044;DHT22;41912;51.022;3.664;2023-02-18T14:07:26;13.20;99.90
56044;DHT22;41912;51.022;3.664;2023-02-18T14:09:55;13.20;99.90
56044;DHT22;41912;51.022;3.664;2023-02-18T14:22:47;13.10;99.90
56044;DHT22;41912;51.022;3.664;2023-02-18T14:27:39;13.10;99.90
56044;DHT22;41912;51.022;3.664;2023-02-18T14:30:28;13.10;99.90
56044;DHT22;41912;51.022;3.664;2023-02-18T14:32:58;13.10;99.90
56044;DHT22;41912;51.022;3.664;2023-02-18T14:35:36;13.10;99.90
56044;DHT22;41912;51.022;3.664;2023-02-18T14:44:42;13.10;99.90
56044;DHT22;41912;51.022;3.664;2023-02-18T14:50:09;13.10;99.90
56044;DHT22;41912;51.022;3.664;2023-02-18T14:52:46;13.10;99.90
56044;DHT22;41912;51.022;3.664;2023-02-18T14:55:24;13.10;99.90
56044;DHT22;41912;51.022;3.664;2023-02-18T14:57:59;13.00;99.90
56044;DHT22;41912;51.022;3.664;2023-02-18T15:00:28;13.10;99.90
56044;DHT22;41912;51.022;3.664;2023-02-18T15:02:57;13.10;99.90
56044;DHT22;41912;51.022;3.664;2023-02-18T15:05:29;13.10;99.90
56044;DHT22;41912;51.022;3.664;2023-02-18T15:08:05;13.10;99.90
56044;DHT22;41912;51.022;3.664;2023-02-18T15:10:43;13.10;99.90
56044;DHT22;41912;51.022;3.664;2023-02-18T15:16:03;13.20;99.90
56044;DHT22;41912;51.022;3.664;2023-02-18T15:18:42;13.20;99.90
56044;DHT22;41912;51.022;3.664;2023-02-18T15:21:23;13.20;99.90
56044;DHT22;41912;51.022;3.664;2023-02-18T15:23:50;13.10;99.90
56044;DHT22;41912;51.022;3.664;2023-02-18T15:26:16;13.10;99.90
56044;DHT22;41912;51.022;3.664;2023-02-18T15:28:59;13.10;99.90
56044;DHT22;41912;51.022;3.664;2023-02-18T15:31:27;13.10;99.90
56044;DHT22;41912;51.022;3.664;2023-02-18T15:33:54;13.10;99.90
56044;DHT22;41912;51.022;3.664;2023-02-18T15:36:19;13.10;99.90
56044;DHT22;41912;51.022;3.664;2023-02-18T15:38:45;13.00;99.90
56044;DHT22;41912;51.022;3.664;2023-02-18T15:41:13;13.00;99.90
56044;DHT22;41912;51.022;3.664;2023-02-18T15:43:50;13.00;99.90
56044;DHT22;41912;51.022;3.664;2023-02-18T15:46:16;13.00;99.90
56044;DHT22;41912;51.022;3.664;2023-02-18T15:48:46;13.10;99.90
56044;DHT22;41912;51.022;3.664;2023-02-18T15:51:16;13.00;99.90
56044;DHT22;41912;51.022;3.664;2023-02-18T15:53:45;13.00;99.90
56044;DHT22;41912;51.022;3.664;2023-02-18T15:56:19;13.00;99.90
56044;DHT22;41912;51.022;3.664;2023-02-18T15:58:45;13.10;99.90
56044;DHT22;41912;51.022;3.664;2023-02-18T16:01:26;13.00;99.90
56044;DHT22;41912;51.022;3.664;2023-02-18T16:03:54;13.00;99.90
56044;DHT22;41912;51.022;3.664;2023-02-18T16:06:27;13.00;99.90
56044;DHT22;41912;51.022;3.664;2023-02-18T16:11:24;13.00;99.90
56044;DHT22;41912;51.022;3.664;2023-02-18T16:13:52;13.00;99.90
56044;DHT22;41912;51.022;3.664;2023-02-18T16:16:33;12.90;99.90
56044;DHT22;41912;51.022;3.664;2023-02-18T16:18:59;12.90;99.90
56044;DHT22;41912;51.022;3.664;2023-02-18T16:21:45;12.90;99.90
56044;DHT22;41912;51.022;3.664;2023-02-18T16:24:28;12.90;99.90
56044;DHT22;41912;51.022;3.664;2023-02-18T16:26:58;12.90;99.90
56044;DHT22;41912;51.022;3.664;2023-02-18T16:29:33;12.90;99.90
56044;DHT22;41912;51.022;3.664;2023-02-18T16:31:59;12.90;99.90
56044;DHT22;41912;51.022;3.664;2023-02-18T16:34:25;12.80;99.90
56044;DHT22;41912;51.022;3.664;2023-02-18T16:36:52;12.80;99.90
56044;DHT22;41912;51.022;3.664;2023-02-18T16:39:37;12.70;99.90
56044;DHT22;41912;51.022;3.664;2023-02-18T16:42:08;12.70;99.90
56044;DHT22;41912;51.022;3.664;2023-02-18T16:44:33;12.70;99.90
56044;DHT22;41912;51.022;3.664;2023-02-18T16:46:59;12.70;99.90
56044;DHT22;41912;51.022;3.664;2023-02-18T16:49:26;12.70;99.90
56044;DHT22;41912;51.022;3.664;2023-02-18T16:51:52;12.70;99.90
56044;DHT22;41912;51.022;3.664;2023-02-18T16:54:18;12.70;99.90
56044;DHT22;41912;51.022;3.664;2023-02-18T16:56:44;12.70;99.90
56044;DHT22;41912;51.022;3.664;2023-02-18T16:59:09;12.70;99.90
56044;DHT22;41912;51.022;3.664;2023-02-18T17:01:37;12.70;99.90
56044;DHT22;41912;51.022;3.664;2023-02-18T17:04:08;12.70;99.90
56044;DHT22;41912;51.022;3.664;2023-02-18T17:06:35;12.80;99.90
56044;DHT22;41912;51.022;3.664;2023-02-18T17:09:01;12.80;99.90
56044;DHT22;41912;51.022;3.664;2023-02-18T17:11:33;12.80;99.90
56044;DHT22;41912;51.022;3.664;2023-02-18T17:14:00;12.80;99.90
56044;DHT22;41912;51.022;3.664;2023-02-18T17:16:29;12.70;99.90
56044;DHT22;41912;51.022;3.664;2023-02-18T17:18:55;12.80;99.90
56044;DHT22;41912;51.022;3.664;2023-02-18T17:21:23;12.70;99.90
56044;DHT22;41912;51.022;3.664;2023-02-18T17:23:50;12.70;99.90
56044;DHT22;41912;51.022;3.664;2023-02-18T17:26:22;12.70;99.90
56044;DHT22;41912;51.022;3.664;2023-02-18T17:28:50;12.60;99.90
56044;DHT22;41912;51.022;3.664;2023-02-18T17:33:52;12.60;99.90
56044;DHT22;41912;51.022;3.664;2023-02-18T17:36:18;12.60;99.90
56044;DHT22;41912;51.022;3.664;2023-02-18T17:38:44;12.60;99.90
56044;DHT22;41912;51.022;3.664;2023-02-18T17:41:11;12.60;99.90
56044;DHT22;41912;51.022;3.664;2023-02-18T17:43:37;12.60;99.90
56044;DHT22;41912;51.022;3.664;2023-02-18T17:46:03;12.60;99.90
56044;DHT22;41912;51.022;3.664;2023-02-18T17:48:29;12.60;99.90
56044;DHT22;41912;51.022;3.664;2023-02-18T17:50:55;12.60;99.90
56044;DHT22;41912;51.022;3.664;2023-02-18T17:53:21;12.60;99.90
56044;DHT22;41912;51.022;3.664;2023-02-18T17:55:47;12.60;99.90
56044;DHT22;41912;51.022;3.664;2023-02-18T17:58:13;12.60;99.90
56044;DHT22;41912;51.022;3.664;2023-02-18T18:00:42;12.60;99.90
56044;DHT22;41912;51.022;3.664;2023-02-18T18:03:10;12.60;99.90
56044;DHT22;41912;51.022;3.664;2023-02-18T18:05:39;12.60;99.90
56044;DHT22;41912;51.022;3.664;2023-02-18T18:08:06;12.60;99.90
56044;DHT22;41912;51.022;3.664;2023-02-18T18:10:35;12.50;99.90
56044;DHT22;41912;51.022;3.664;2023-02-18T18:13:05;12.50;99.90
56044;DHT22;41912;51.022;3.664;2023-02-18T18:15:39;12.50;99.90
56044;DHT22;41912;51.022;3.664;2023-02-18T18:18:05;12.50;99.90
56044;DHT22;41912;51.022;3.664;2023-02-18T18:20:33;12.50;99.90